Time;durP1;ratioP1;P1;durP2;ratioP2;P2;SDS_P1;SDS_P2;PMS_P1;PMS_P2;Temp;Humidity;BMP_temperature;BMP_pressure;BME280_temperature;BME280_humidity;BME280_pressure;Samples;Min_cycle;Max_cycle;Signal;HPM_P1;HPM_P2
2021/04/18 00:01:46;;;;;;;9.98;4.53;;;5.20;98.30;;;;;;6074617;23;20017;-90
2021/04/18 00:04:11;;;;;;;12.00;4.28;;;5.20;98.20;;;;;;6122530;23;20399;-90
2021/04/18 00:06:38;;;;;;;20.05;5.15;;;5.20;98.20;;;;;;6097514;23;20037;-90
2021/04/18 00:09:11;;;;;;;13.40;4.80;;;5.10;98.40;;;;;;6122822;23;20033;-90
2021/04/18 00:11:38;;;;;;;16.48;5.10;;;5.20;98.20;;;;;;6121466;23;20017;-90
2021/04/18 00:14:06;;;;;;;17.50;4.68;;;5.20;98.20;;;;;;6121766;23;20018;-90
2021/04/18 00:16:32;;;;;;;17.02;4.93;;;5.20;98.20;;;;;;6122044;23;20024;-90
2021/04/18 00:18:58;;;;;;;9.50;4.53;;;5.10;98.10;;;;;;6121849;23;20360;-89
2021/04/18 00:21:24;;;;;;;16.67;4.95;;;5.10;98.00;;;;;;6121021;23;20013;-90
2021/04/18 00:23:50;;;;;;;10.95;3.90;;;5.10;98.30;;;;;;6100081;23;20468;-90
2021/04/18 00:26:17;;;;;;;13.65;5.28;;;5.10;98.10;;;;;;6101113;23;20065;-90
2021/04/18 00:28:43;;;;;;;18.27;5.63;;;5.10;98.20;;;;;;6100614;23;20362;-89
2021/04/18 00:31:09;;;;;;;9.07;4.60;;;5.10;98.20;;;;;;6100381;23;20021;-89
2021/04/18 00:33:34;;;;;;;11.93;4.50;;;5.10;98.20;;;;;;6101073;23;20021;-90
2021/04/18 00:36:00;;;;;;;10.52;4.43;;;5.10;98.40;;;;;;6100283;23;20347;-90
2021/04/18 00:38:26;;;;;;;14.50;4.53;;;5.10;98.30;;;;;;6100944;23;20013;-89
2021/04/18 00:40:52;;;;;;;15.15;4.18;;;5.10;98.30;;;;;;6099954;23;20096;-90
2021/04/18 00:43:18;;;;;;;11.10;4.72;;;5.00;98.30;;;;;;6076229;23;20021;-90
2021/04/18 00:45:44;;;;;;;15.52;4.30;;;5.00;98.40;;;;;;6094788;23;20084;-90
2021/04/18 00:48:11;;;;;;;11.48;4.15;;;5.00;98.40;;;;;;6096264;23;20025;-89
2021/04/18 00:50:39;;;;;;;14.68;4.47;;;5.00;98.30;;;;;;6118037;23;20311;-89
2021/04/18 00:53:07;;;;;;;12.80;3.65;;;5.00;98.30;;;;;;6095999;23;20109;-89
2021/04/18 00:55:43;;;;;;;9.07;4.25;;;5.00;98.30;;;;;;6095062;23;20092;-89
2021/04/18 00:58:11;;;;;;;12.40;4.05;;;4.90;98.20;;;;;;6119954;23;20014;-89
2021/04/18 01:00:38;;;;;;;11.32;3.38;;;4.90;98.20;;;;;;6095371;23;20461;-89
2021/04/18 01:03:05;;;;;;;7.65;3.50;;;4.90;98.20;;;;;;6119938;23;20322;-90
2021/04/18 01:05:32;;;;;;;10.23;3.78;;;4.80;98.20;;;;;;6119201;23;20010;-89
2021/04/18 01:07:58;;;;;;;11.20;4.10;;;4.80;98.20;;;;;;6120013;23;20524;-90
2021/04/18 01:10:24;;;;;;;7.65;3.47;;;4.70;98.20;;;;;;6118470;23;20010;-89
2021/04/18 01:12:50;;;;;;;10.18;3.60;;;4.70;98.30;;;;;;6093997;23;20029;-90
2021/04/18 01:15:17;;;;;;;8.50;3.50;;;4.70;98.40;;;;;;6094973;23;20018;-89
2021/04/18 01:17:43;;;;;;;9.70;3.45;;;4.70;98.40;;;;;;6095680;23;20069;-89
2021/04/18 01:20:13;;;;;;;9.45;3.33;;;4.70;98.30;;;;;;6119426;23;20009;-90
2021/04/18 01:22:39;;;;;;;8.50;3.28;;;4.60;98.20;;;;;;6118308;23;20032;-89
2021/04/18 01:25:07;;;;;;;8.45;3.90;;;4.60;98.10;;;;;;6094892;23;20422;-89
2021/04/18 01:27:33;;;;;;;13.85;4.60;;;4.60;98.20;;;;;;6094251;23;20014;-89
2021/04/18 01:29:58;;;;;;;9.38;3.80;;;4.60;98.30;;;;;;6120224;23;20021;-89
2021/04/18 01:32:24;;;;;;;10.07;4.05;;;4.60;98.40;;;;;;6094834;23;20018;-90
2021/04/18 01:34:50;;;;;;;9.98;4.10;;;4.60;98.40;;;;;;6118059;23;20014;-89
2021/04/18 01:37:18;;;;;;;10.32;4.00;;;4.60;98.40;;;;;;6095142;23;20017;-89
2021/04/18 01:39:45;;;;;;;11.35;4.07;;;4.60;98.40;;;;;;6120509;23;20403;-89
2021/04/18 01:42:12;;;;;;;11.13;4.60;;;4.60;98.30;;;;;;6116620;23;20020;-90
2021/04/18 01:44:38;;;;;;;12.18;4.22;;;4.60;98.30;;;;;;6120764;23;20010;-89
2021/04/18 01:47:04;;;;;;;9.57;3.53;;;4.60;98.30;;;;;;6096590;23;20025;-90
2021/04/18 01:49:31;;;;;;;10.48;4.00;;;4.60;98.30;;;;;;6096943;23;20073;-90
2021/04/18 01:51:58;;;;;;;9.55;4.30;;;4.60;98.20;;;;;;6095005;23;20021;-90
2021/04/18 01:54:24;;;;;;;12.15;4.15;;;4.60;98.30;;;;;;6096791;23;20053;-89
2021/04/18 01:56:49;;;;;;;14.32;5.45;;;4.70;98.40;;;;;;6094928;23;20022;-89
2021/04/18 01:59:15;;;;;;;13.57;4.45;;;4.70;98.40;;;;;;6096705;23;20014;-90
2021/04/18 02:01:41;;;;;;;12.73;5.07;;;4.70;98.80;;;;;;6096257;23;20013;-89
2021/04/18 02:04:26;;;;;;;13.43;5.10;;;4.70;98.60;;;;;;6096805;23;20029;-89
2021/04/18 02:06:52;;;;;;;17.15;4.80;;;4.80;98.60;;;;;;6096235;23;20006;-90
2021/04/18 02:09:18;;;;;;;17.38;5.30;;;4.80;98.60;;;;;;6096274;23;20014;-89
2021/04/18 02:11:44;;;;;;;14.90;4.68;;;4.80;98.50;;;;;;6094088;23;20064;-90
2021/04/18 02:14:10;;;;;;;13.93;5.50;;;4.80;98.60;;;;;;6120867;23;20020;-90
2021/04/18 02:16:36;;;;;;;16.50;6.00;;;4.80;98.60;;;;;;6096552;23;20081;-90
2021/04/18 02:19:03;;;;;;;19.10;5.25;;;4.80;98.60;;;;;;6095532;23;20010;-89
2021/04/18 02:21:29;;;;;;;14.88;4.90;;;4.80;98.60;;;;;;6095973;23;20018;-90
2021/04/18 02:23:55;;;;;;;15.63;4.68;;;4.80;98.80;;;;;;6096918;23;20069;-91
2021/04/18 02:26:21;;;;;;;21.55;6.57;;;4.90;98.90;;;;;;6120855;23;20052;-90
2021/04/18 02:28:47;;;;;;;21.02;6.22;;;4.90;99.20;;;;;;6096718;23;20006;-90
2021/04/18 02:31:13;;;;;;;14.63;5.45;;;5.00;99.20;;;;;;6096043;23;20021;-90
2021/04/18 02:33:39;;;;;;;18.42;5.28;;;5.00;99.30;;;;;;6097487;23;20009;-90
2021/04/18 02:36:05;;;;;;;16.40;5.50;;;5.00;99.30;;;;;;6123775;23;20048;-90
2021/04/18 02:38:31;;;;;;;23.55;6.28;;;5.00;99.30;;;;;;6130631;23;20014;-89
2021/04/18 02:40:57;;;;;;;18.83;6.10;;;5.00;99.40;;;;;;6142041;23;20021;-90
2021/04/18 02:43:23;;;;;;;16.67;6.30;;;5.00;99.70;;;;;;6108912;23;20474;-90
2021/04/18 02:45:49;;;;;;;16.75;5.40;;;5.10;99.50;;;;;;6098528;23;20041;-90
2021/04/18 02:48:15;;;;;;;15.38;5.63;;;5.00;99.30;;;;;;6123473;23;20025;-90
2021/04/18 02:50:41;;;;;;;15.63;4.97;;;5.00;99.30;;;;;;6095756;23;20060;-90
2021/04/18 02:53:07;;;;;;;15.52;4.95;;;4.90;99.20;;;;;;6096991;23;20069;-90
2021/04/18 02:55:33;;;;;;;17.58;5.43;;;4.90;99.40;;;;;;6121455;23;20472;-89
2021/04/18 02:57:59;;;;;;;14.65;5.60;;;4.90;99.10;;;;;;6122249;23;20104;-90
2021/04/18 03:00:25;;;;;;;15.63;5.07;;;4.90;99.10;;;;;;6095341;23;20022;-90
2021/04/18 03:02:52;;;;;;;13.77;4.80;;;4.90;99.10;;;;;;6120472;23;20092;-89
2021/04/18 03:05:17;;;;;;;8.95;3.95;;;4.90;99.10;;;;;;6121457;23;20014;-90
2021/04/18 03:07:44;;;;;;;17.30;4.30;;;4.90;99.10;;;;;;6075035;23;20018;-90
2021/04/18 03:10:11;;;;;;;20.50;5.00;;;4.90;99.00;;;;;;6121558;23;20014;-90
2021/04/18 03:12:36;;;;;;;12.77;4.10;;;4.90;99.00;;;;;;6097397;23;20010;-90
2021/04/18 03:15:04;;;;;;;15.20;4.60;;;4.90;99.10;;;;;;6075164;23;20084;-90
2021/04/18 03:17:29;;;;;;;12.38;4.45;;;4.90;99.00;;;;;;6073601;23;20014;-90
2021/04/18 03:19:55;;;;;;;15.88;5.05;;;4.90;99.00;;;;;;6120728;23;20314;-90
2021/04/18 03:22:21;;;;;;;17.05;4.53;;;4.90;99.00;;;;;;6070926;23;20021;-90
2021/04/18 03:24:47;;;;;;;17.05;5.30;;;4.80;99.00;;;;;;6120146;23;20009;-90
2021/04/18 03:27:13;;;;;;;16.17;4.68;;;4.80;99.30;;;;;;6095695;23;20016;-90
2021/04/18 03:29:39;;;;;;;16.52;4.97;;;4.80;99.10;;;;;;6095167;23;20010;-90
2021/04/18 03:32:05;;;;;;;11.82;3.90;;;4.80;99.00;;;;;;6094104;23;20068;-90
2021/04/18 03:34:33;;;;;;;13.00;3.90;;;4.80;99.00;;;;;;6120549;23;20013;-90
2021/04/18 03:36:59;;;;;;;11.70;4.47;;;4.80;99.00;;;;;;6121290;23;20022;-90
2021/04/18 03:39:25;;;;;;;10.35;3.85;;;4.70;98.90;;;;;;6120215;23;20014;-90
2021/04/18 03:41:51;;;;;;;12.25;4.28;;;4.70;98.80;;;;;;6095268;23;20022;-90
2021/04/18 03:44:16;;;;;;;14.93;3.60;;;4.60;98.70;;;;;;6099369;23;20014;-90
2021/04/18 03:46:42;;;;;;;17.83;4.63;;;4.60;98.80;;;;;;6124394;23;20025;-90
2021/04/18 03:49:08;;;;;;;14.75;4.07;;;4.60;98.90;;;;;;6101468;23;20041;-90
2021/04/18 03:51:34;;;;;;;13.23;4.20;;;4.60;98.90;;;;;;6123685;23;20464;-90
2021/04/18 03:54:00;;;;;;;13.55;4.60;;;4.50;98.80;;;;;;6123912;23;20111;-91
2021/04/18 03:56:26;;;;;;;11.82;3.42;;;4.50;98.80;;;;;;6125429;23;20044;-91
2021/04/18 03:58:52;;;;;;;10.88;3.45;;;4.50;98.90;;;;;;6077699;23;20013;-91
2021/04/18 04:01:18;;;;;;;7.75;2.67;;;4.50;98.90;;;;;;6125343;23;20530;-91
2021/04/18 04:03:44;;;;;;;9.38;2.70;;;4.40;98.80;;;;;;6103108;23;20017;-90
2021/04/18 04:06:09;;;;;;;7.38;2.30;;;4.40;98.80;;;;;;6078251;23;20023;-91
2021/04/18 04:08:35;;;;;;;9.73;2.13;;;4.30;98.70;;;;;;6102547;23;20100;-91
2021/04/18 04:11:01;;;;;;;5.40;1.92;;;4.30;98.50;;;;;;6100342;23;20726;-90
2021/04/18 04:13:27;;;;;;;8.68;1.88;;;4.20;98.50;;;;;;6103206;23;20009;-91
2021/04/18 04:15:53;;;;;;;12.48;1.67;;;4.20;98.50;;;;;;6125814;23;20036;-91
2021/04/18 04:18:19;;;;;;;11.57;2.30;;;4.10;98.40;;;;;;6101977;23;20080;-91
2021/04/18 04:20:45;;;;;;;25.52;2.33;;;4.10;98.40;;;;;;6101160;23;20014;-90
2021/04/18 04:23:10;;;;;;;26.90;2.67;;;4.00;98.20;;;;;;6078111;23;20480;-91
2021/04/18 04:25:36;;;;;;;34.47;3.10;;;3.90;98.50;;;;;;6101865;23;20048;-91
2021/04/18 04:28:03;;;;;;;16.00;3.30;;;3.80;98.20;;;;;;6102711;23;20457;-91
2021/04/18 04:30:29;;;;;;;23.58;3.78;;;3.80;98.40;;;;;;6151437;23;20092;-91
2021/04/18 04:32:55;;;;;;;18.33;3.40;;;3.70;98.40;;;;;;6078208;23;20018;-91
2021/04/18 04:35:21;;;;;;;13.15;3.03;;;3.70;98.50;;;;;;6102953;23;20013;-91
2021/04/18 04:37:47;;;;;;;11.65;2.58;;;3.70;98.60;;;;;;6102683;23;20017;-91
2021/04/18 04:40:13;;;;;;;14.43;3.08;;;3.70;98.50;;;;;;6101398;23;20017;-91
2021/04/18 04:42:39;;;;;;;10.77;2.85;;;3.80;98.70;;;;;;6096735;23;20017;-91
2021/04/18 04:45:06;;;;;;;7.93;2.28;;;3.80;98.50;;;;;;6100353;23;20018;-91
2021/04/18 04:47:31;;;;;;;10.23;3.22;;;3.90;98.50;;;;;;6126306;23;20013;-90
2021/04/18 04:49:57;;;;;;;13.45;2.35;;;3.80;98.40;;;;;;6126801;23;20079;-91
2021/04/18 04:52:24;;;;;;;18.65;2.70;;;3.80;98.40;;;;;;6101183;23;20448;-91
2021/04/18 04:54:49;;;;;;;11.55;2.70;;;3.80;98.40;;;;;;6101836;23;20101;-91
2021/04/18 04:57:15;;;;;;;14.63;3.50;;;3.80;98.50;;;;;;6101822;23;20040;-91
2021/04/18 04:59:41;;;;;;;36.88;2.95;;;3.70;98.60;;;;;;6078035;23;20017;-91
2021/04/18 05:02:07;;;;;;;39.95;2.95;;;3.70;98.80;;;;;;6100399;23;20044;-91
2021/04/18 05:04:33;;;;;;;43.10;2.53;;;3.50;98.80;;;;;;6102460;23;20010;-90
2021/04/18 05:06:59;;;;;;;45.00;2.63;;;3.40;98.80;;;;;;6126875;23;20024;-91
2021/04/18 05:09:25;;;;;;;32.85;2.25;;;3.30;99.00;;;;;;6100182;23;20013;-91
2021/04/18 05:11:51;;;;;;;41.00;3.13;;;3.30;99.30;;;;;;6124999;23;20348;-91
2021/04/18 05:14:17;;;;;;;42.08;3.03;;;3.30;99.30;;;;;;6126419;23;20017;-91
2021/04/18 05:16:43;;;;;;;55.60;3.47;;;3.40;99.20;;;;;;6101445;23;20052;-91
2021/04/18 05:19:09;;;;;;;10.57;2.70;;;3.40;99.30;;;;;;6128367;23;20044;-91
2021/04/18 05:21:35;;;;;;;49.67;4.13;;;3.40;99.40;;;;;;6105054;23;20020;-91
2021/04/18 05:24:00;;;;;;;87.60;5.00;;;3.50;99.60;;;;;;6124492;23;20013;-91
2021/04/18 05:26:26;;;;;;;70.03;3.78;;;3.50;99.60;;;;;;6101902;23;20282;-89
2021/04/18 05:28:53;;;;;;;27.67;3.65;;;3.50;99.60;;;;;;6025624;23;20025;-91
2021/04/18 05:31:20;;;;;;;62.58;3.88;;;3.60;99.60;;;;;;6104413;23;20088;-92
2021/04/18 05:33:45;;;;;;;46.47;3.60;;;3.60;99.60;;;;;;6126103;23;20072;-92
2021/04/18 05:36:17;;;;;;;22.08;3.72;;;3.70;99.60;;;;;;6126670;23;20048;-92
2021/04/18 05:38:43;;;;;;;9.55;3.10;;;3.70;99.60;;;;;;6104222;23;20010;-89
2021/04/18 05:41:09;;;;;;;8.13;2.88;;;3.80;99.60;;;;;;6124650;23;20043;-92
2021/04/18 05:43:34;;;;;;;6.93;3.10;;;3.90;99.70;;;;;;6152842;23;20017;-90
2021/04/18 05:46:00;;;;;;;28.13;3.92;;;3.90;99.60;;;;;;6101682;23;20013;-90
2021/04/18 05:48:26;;;;;;;13.63;4.30;;;4.00;99.60;;;;;;6123953;23;20020;-91
2021/04/18 05:50:52;;;;;;;18.38;3.90;;;4.00;99.80;;;;;;6126218;23;20068;-90
2021/04/18 05:53:18;;;;;;;12.50;3.70;;;4.10;99.80;;;;;;6104359;23;20464;-91
2021/04/18 05:55:44;;;;;;;11.38;3.67;;;4.10;99.70;;;;;;6102395;23;20044;-90
2021/04/18 05:58:11;;;;;;;10.52;3.80;;;4.20;99.80;;;;;;6132106;23;20017;-90
2021/04/18 06:00:38;;;;;;;15.38;4.60;;;4.20;99.80;;;;;;6108210;23;20013;-90
2021/04/18 06:03:05;;;;;;;17.17;5.30;;;4.30;99.90;;;;;;6110027;23;20460;-89
2021/04/18 06:05:31;;;;;;;12.38;4.78;;;4.30;99.90;;;;;;6082072;23;20021;-90
2021/04/18 06:07:57;;;;;;;18.65;4.25;;;4.40;99.90;;;;;;6082741;23;20540;-90
2021/04/18 06:10:23;;;;;;;18.27;4.20;;;4.30;99.90;;;;;;6101473;23;20037;-90
2021/04/18 06:12:51;;;;;;;16.27;3.85;;;4.40;99.90;;;;;;6102642;23;20435;-90
2021/04/18 06:15:18;;;;;;;18.55;3.55;;;4.40;99.90;;;;;;6153516;23;20001;-90
2021/04/18 06:17:44;;;;;;;11.65;2.50;;;4.40;99.90;;;;;;6084025;23;20025;-91
2021/04/18 06:20:11;;;;;;;5.30;1.73;;;4.40;99.90;;;;;;6107309;23;20470;-89
2021/04/18 06:22:43;;;;;;;9.68;1.98;;;4.30;99.90;;;;;;6107269;23;20013;-89
2021/04/18 06:25:10;;;;;;;6.35;2.05;;;4.30;99.90;;;;;;6130036;23;20041;-92
2021/04/18 06:27:39;;;;;;;4.25;1.83;;;4.20;99.90;;;;;;6127660;23;20017;-91
2021/04/18 06:30:06;;;;;;;6.13;2.05;;;4.20;99.90;;;;;;6101015;23;20109;-92
2021/04/18 06:32:32;;;;;;;19.77;3.08;;;4.20;99.90;;;;;;6134943;23;20223;-90
2021/04/18 06:35:01;;;;;;;16.00;3.60;;;4.20;99.90;;;;;;6113422;23;20012;-90
2021/04/18 06:37:28;;;;;;;10.70;4.00;;;4.30;99.90;;;;;;6136619;23;20009;-90
2021/04/18 06:39:54;;;;;;;12.00;4.05;;;4.30;99.90;;;;;;6133352;23;20360;-88
2021/04/18 06:42:22;;;;;;;7.32;3.10;;;4.50;99.90;;;;;;6106704;23;20040;-92
2021/04/18 06:44:49;;;;;;;8.45;3.88;;;4.50;99.90;;;;;;6131365;23;20067;-92
2021/04/18 06:47:15;;;;;;;9.35;3.55;;;4.60;99.90;;;;;;6125386;23;20017;-84
2021/04/18 06:49:41;;;;;;;11.18;4.25;;;4.70;99.90;;;;;;6123761;23;20022;-82
2021/04/18 06:52:10;;;;;;;11.32;3.72;;;4.80;99.90;;;;;;6096541;23;20018;-82
2021/04/18 06:54:36;;;;;;;15.32;4.85;;;4.90;99.90;;;;;;6147942;23;20021;-81
2021/04/18 06:57:02;;;;;;;10.98;4.53;;;5.00;99.90;;;;;;6071820;23;20015;-81
2021/04/18 06:59:28;;;;;;;9.88;4.25;;;5.00;99.90;;;;;;6097647;23;20017;-82
2021/04/18 07:01:54;;;;;;;12.25;4.28;;;5.10;99.90;;;;;;6094619;23;20017;-82
2021/04/18 07:04:22;;;;;;;9.48;3.60;;;5.20;99.90;;;;;;6073864;23;20020;-82
2021/04/18 07:06:55;;;;;;;7.40;3.65;;;5.30;99.90;;;;;;6120833;23;20416;-83
2021/04/18 07:09:23;;;;;;;15.32;3.90;;;5.40;99.90;;;;;;6098207;23;20018;-82
2021/04/18 07:11:57;;;;;;;11.57;3.92;;;5.60;99.90;;;;;;6147062;23;20021;-83
2021/04/18 07:14:34;;;;;;;14.93;5.38;;;5.70;99.90;;;;;;6146335;23;20460;-83
2021/04/18 07:17:10;;;;;;;17.33;6.10;;;5.90;99.90;;;;;;6119619;23;20017;-83
2021/04/18 07:19:38;;;;;;;16.40;5.10;;;6.10;99.90;;;;;;6095654;23;20466;-83
2021/04/18 07:22:06;;;;;;;16.13;6.80;;;6.30;99.90;;;;;;6142744;23;20009;-83
2021/04/18 07:24:33;;;;;;;13.93;6.53;;;6.50;99.90;;;;;;6147222;23;20017;-83
2021/04/18 07:27:09;;;;;;;15.02;7.30;;;6.60;99.90;;;;;;6071941;23;20104;-84
2021/04/18 07:29:34;;;;;;;22.75;11.98;;;6.80;99.90;;;;;;6120368;23;20019;-82
2021/04/18 07:32:17;;;;;;;21.70;11.50;;;7.00;99.90;;;;;;6094253;23;20285;-82
2021/04/18 07:34:43;;;;;;;;;;;7.10;99.90;;;;;;6147739;23;20045;-81
2021/04/18 07:37:14;;;;;;;20.65;10.20;;;7.20;99.90;;;;;;6120126;23;19917;-81
2021/04/18 07:39:58;;;;;;;27.27;11.60;;;7.30;99.90;;;;;;6146572;23;20616;-82
2021/04/18 07:42:35;;;;;;;22.80;11.27;;;7.40;99.90;;;;;;6143881;23;20310;-83
2021/04/18 07:45:06;;;;;;;21.83;11.50;;;7.50;99.90;;;;;;6144877;23;20024;-81
2021/04/18 07:47:38;;;;;;;27.25;11.73;;;7.70;99.90;;;;;;6121255;23;20424;-82
2021/04/18 07:50:14;;;;;;;23.85;10.40;;;7.70;99.90;;;;;;6119439;23;20024;-81
2021/04/18 07:52:43;;;;;;;20.15;11.00;;;7.80;99.90;;;;;;6094747;23;20113;-81
2021/04/18 07:55:11;;;;;;;25.27;11.80;;;7.80;99.90;;;;;;6120510;23;20402;-82
2021/04/18 07:57:37;;;;;;;26.25;11.48;;;7.80;99.90;;;;;;6097378;23;20014;-81
2021/04/18 08:00:05;;;;;;;24.30;11.02;;;7.80;99.90;;;;;;6097291;23;20461;-81
2021/04/18 08:02:31;;;;;;;17.90;10.90;;;7.80;99.90;;;;;;6120407;23;20025;-78
2021/04/18 08:04:57;;;;;;;19.63;11.32;;;7.80;99.90;;;;;;6122789;23;20009;-79
2021/04/18 08:07:24;;;;;;;19.25;11.80;;;7.90;99.90;;;;;;6119939;23;20345;-76
2021/04/18 08:10:25;;;;;;;19.98;10.15;;;8.00;99.90;;;;;;6123076;23;20021;-81
2021/04/18 08:13:00;;;;;;;17.65;9.57;;;8.20;99.90;;;;;;6122432;23;20040;-82
2021/04/18 08:15:26;;;;;;;18.35;9.13;;;8.20;99.80;;;;;;6123176;23;20392;-82
2021/04/18 08:18:15;;;;;;;16.05;9.95;;;8.20;99.60;;;;;;6119730;23;20021;-82
2021/04/18 08:20:43;;;;;;;19.25;9.95;;;8.30;99.70;;;;;;6144423;23;20279;-81
2021/04/18 08:23:18;;;;;;;17.80;9.82;;;8.40;99.50;;;;;;6122406;23;20018;-82
2021/04/18 08:26:06;;;;;;;20.45;10.73;;;8.50;99.60;;;;;;6097044;23;20020;-83
2021/04/18 08:28:55;;;;;;;16.50;9.40;;;8.80;99.80;;;;;;6145290;23;20044;-80
2021/04/18 08:31:22;;;;;;;18.98;9.52;;;9.10;99.70;;;;;;6118186;23;20061;-80
2021/04/18 08:33:53;;;;;;;20.70;9.05;;;9.30;98.90;;;;;;6120056;23;20048;-81
2021/04/18 08:36:20;;;;;;;15.43;8.73;;;9.40;97.50;;;;;;6119657;23;20093;-81
2021/04/18 08:39:09;;;;;;;17.25;8.63;;;9.40;97.90;;;;;;6120407;23;20018;-82
2021/04/18 08:41:45;;;;;;;13.23;6.97;;;9.40;97.70;;;;;;6144791;23;20022;-82
2021/04/18 08:44:18;;;;;;;15.95;7.53;;;9.30;96.70;;;;;;6120079;23;20520;-82
2021/04/18 08:46:46;;;;;;;20.90;7.90;;;9.30;97.00;;;;;;6149397;23;20013;-82
2021/04/18 08:49:24;;;;;;;18.85;7.32;;;9.30;97.00;;;;;;6099074;23;20064;-83
2021/04/18 08:51:52;;;;;;;16.58;7.45;;;9.30;96.80;;;;;;6117604;23;20252;-82
2021/04/18 08:54:30;;;;;;;16.85;7.80;;;9.30;96.90;;;;;;6122803;23;20452;-82
2021/04/18 08:57:00;;;;;;;14.40;6.57;;;9.30;96.80;;;;;;6123169;23;20483;-82
2021/04/18 08:59:26;;;;;;;11.68;6.07;;;9.30;96.80;;;;;;6119410;23;20076;-83
2021/04/18 09:01:54;;;;;;;13.52;5.22;;;9.30;96.10;;;;;;6120988;23;20021;-83
2021/04/18 09:04:21;;;;;;;12.95;6.32;;;9.30;95.50;;;;;;6099291;23;20017;-80
2021/04/18 09:06:48;;;;;;;13.55;5.90;;;9.40;95.80;;;;;;6099071;23;20017;-81
2021/04/18 09:09:15;;;;;;;9.82;6.88;;;9.50;95.90;;;;;;6097292;23;20009;-80
2021/04/18 09:11:46;;;;;;;13.93;6.63;;;9.50;96.00;;;;;;6120221;23;20530;-81
2021/04/18 09:14:14;;;;;;;10.27;6.50;;;9.60;96.00;;;;;;6097741;23;20495;-80
2021/04/18 09:16:40;;;;;;;11.38;6.43;;;9.70;96.20;;;;;;6123744;23;20025;-83
2021/04/18 09:19:29;;;;;;;11.73;6.45;;;9.70;96.30;;;;;;6099150;23;20396;-81
2021/04/18 09:22:07;;;;;;;12.40;6.03;;;9.80;96.40;;;;;;6123894;23;20021;-83
2021/04/18 09:24:45;;;;;;;7.05;4.70;;;9.90;96.30;;;;;;6123126;23;20014;-81
2021/04/18 09:27:16;;;;;;;10.60;5.57;;;10.00;94.00;;;;;;6149865;23;20017;-80
2021/04/18 09:29:51;;;;;;;12.77;6.53;;;10.10;93.40;;;;;;6123561;23;20013;-81
2021/04/18 09:32:20;;;;;;;11.35;6.00;;;10.20;93.80;;;;;;6122661;23;20014;-82
2021/04/18 09:34:46;;;;;;;9.65;6.47;;;10.30;94.00;;;;;;6150575;23;20060;-82
2021/04/18 09:37:37;;;;;;;10.88;6.45;;;10.30;94.00;;;;;;6099139;23;20050;-82
2021/04/18 09:40:16;;;;;;;12.05;5.97;;;10.30;94.20;;;;;;6124008;23;20009;-81
2021/04/18 09:42:48;;;;;;;12.32;6.20;;;10.30;93.70;;;;;;6122793;23;20014;-81
2021/04/18 09:45:26;;;;;;;9.93;4.93;;;10.50;91.10;;;;;;6125266;23;20009;-82
2021/04/18 09:47:53;;;;;;;9.57;5.03;;;10.60;90.90;;;;;;6124134;23;20017;-83
2021/04/18 09:50:25;;;;;;;11.55;5.95;;;10.80;90.20;;;;;;6146579;23;20103;-82
2021/04/18 09:52:52;;;;;;;11.45;5.82;;;10.80;91.00;;;;;;6122104;23;20018;-82
2021/04/18 09:55:23;;;;;;;13.18;6.97;;;10.80;91.60;;;;;;6098087;23;20121;-82
2021/04/18 09:57:58;;;;;;;12.98;6.45;;;10.80;91.90;;;;;;6121601;23;20136;-82
2021/04/18 10:00:29;;;;;;;11.95;6.57;;;10.80;92.10;;;;;;6120731;23;20125;-82
2021/04/18 10:03:13;;;;;;;11.40;6.05;;;10.80;91.30;;;;;;6121999;23;20401;-82
2021/04/18 10:05:44;;;;;;;11.70;6.10;;;10.90;91.40;;;;;;6124018;23;20016;-83
2021/04/18 10:08:23;;;;;;;11.60;6.32;;;11.00;91.30;;;;;;6126142;23;20024;-84
2021/04/18 10:11:02;;;;;;;13.43;6.20;;;11.00;91.50;;;;;;6124658;23;20025;-84
2021/04/18 10:13:58;;;;;;;10.77;6.55;;;11.20;90.80;;;;;;6126343;23;20017;-83
2021/04/18 10:16:36;;;;;;;13.80;6.70;;;11.30;91.30;;;;;;6132096;23;20041;-82
2021/04/18 10:19:22;;;;;;;9.73;5.93;;;11.30;91.00;;;;;;6123867;23;20071;-82
2021/04/18 10:22:10;;;;;;;13.13;5.97;;;11.40;91.50;;;;;;6121501;23;20108;-82
2021/04/18 10:24:49;;;;;;;11.13;6.53;;;11.30;90.70;;;;;;6097305;23;20086;-82
2021/04/18 10:27:19;;;;;;;17.38;7.63;;;11.40;91.50;;;;;;6100887;23;20017;-83
2021/04/18 10:29:45;;;;;;;9.50;5.22;;;11.50;91.70;;;;;;6123271;23;20014;-80
2021/04/18 10:32:11;;;;;;;11.20;6.55;;;11.50;91.40;;;;;;6098659;23;20185;-81
2021/04/18 10:34:37;;;;;;;9.60;5.80;;;11.50;91.60;;;;;;6098608;23;20021;-82
2021/04/18 10:37:04;;;;;;;11.25;6.63;;;11.60;91.40;;;;;;6099445;23;20015;-83
2021/04/18 10:39:31;;;;;;;10.55;6.90;;;11.60;91.50;;;;;;6123658;23;20340;-83
2021/04/18 10:41:57;;;;;;;10.13;6.05;;;11.60;91.60;;;;;;6097658;23;20352;-83
2021/04/18 10:44:23;;;;;;;9.63;6.10;;;11.60;92.10;;;;;;6118840;23;20096;-84
2021/04/18 10:47:01;;;;;;;13.05;6.13;;;11.70;92.20;;;;;;6122476;23;20018;-82
2021/04/18 10:49:27;;;;;;;11.75;5.78;;;11.60;92.00;;;;;;6123270;23;20017;-83
2021/04/18 10:51:55;;;;;;;13.68;6.40;;;11.70;92.10;;;;;;6071906;23;20021;-79
2021/04/18 10:54:20;;;;;;;8.90;5.35;;;11.60;92.40;;;;;;6099405;23;20025;-81
2021/04/18 10:56:48;;;;;;;11.20;5.82;;;11.70;91.90;;;;;;6098264;23;20104;-78
2021/04/18 10:59:15;;;;;;;10.07;5.43;;;11.70;92.10;;;;;;6122046;23;20022;-78
2021/04/18 11:01:41;;;;;;;13.48;5.00;;;11.70;91.90;;;;;;6097076;23;20041;-78
2021/04/18 11:04:08;;;;;;;14.07;5.97;;;11.70;91.30;;;;;;6122839;23;20017;-77
2021/04/18 11:06:34;;;;;;;19.48;7.10;;;11.80;91.40;;;;;;6098868;23;20025;-78
2021/04/18 11:09:00;;;;;;;10.32;5.60;;;11.80;91.80;;;;;;6122648;23;20049;-78
2021/04/18 11:11:25;;;;;;;10.88;5.03;;;11.90;91.60;;;;;;6147793;23;20020;-78
2021/04/18 11:13:54;;;;;;;10.88;5.53;;;12.00;91.10;;;;;;6149157;23;20452;-79
2021/04/18 11:16:20;;;;;;;13.65;4.72;;;12.10;90.90;;;;;;6099183;23;20025;-77
2021/04/18 11:18:46;;;;;;;7.28;4.85;;;12.10;90.70;;;;;;6099936;23;20014;-77
2021/04/18 11:21:12;;;;;;;9.70;4.10;;;12.20;91.10;;;;;;6097399;23;20025;-77
2021/04/18 11:23:38;;;;;;;10.50;5.47;;;12.20;90.80;;;;;;6122542;23;20100;-77
2021/04/18 11:26:04;;;;;;;9.27;4.57;;;12.30;91.20;;;;;;6098387;23;20092;-77
2021/04/18 11:28:30;;;;;;;9.57;4.47;;;12.30;90.90;;;;;;6122284;23;20354;-76
2021/04/18 11:30:55;;;;;;;8.85;4.78;;;12.30;89.20;;;;;;6096614;23;20013;-76
2021/04/18 11:33:23;;;;;;;10.43;4.22;;;12.40;90.00;;;;;;6123276;23;20021;-77
2021/04/18 11:35:48;;;;;;;10.82;4.18;;;12.60;86.80;;;;;;6097240;23;20048;-77
2021/04/18 11:38:14;;;;;;;8.88;4.13;;;12.80;83.80;;;;;;6123784;23;20009;-77
2021/04/18 11:40:40;;;;;;;9.98;3.90;;;13.10;83.30;;;;;;6097890;23;20021;-76
2021/04/18 11:43:06;;;;;;;11.20;4.82;;;13.20;82.60;;;;;;6124267;23;20069;-77
2021/04/18 11:45:32;;;;;;;6.45;4.03;;;13.20;84.00;;;;;;6149214;23;20013;-76
2021/04/18 11:47:57;;;;;;;7.50;3.88;;;13.10;85.20;;;;;;6099500;23;20079;-77
2021/04/18 11:50:24;;;;;;;6.13;3.42;;;13.10;86.30;;;;;;6122319;23;20441;-78
2021/04/18 11:52:51;;;;;;;9.23;3.30;;;13.20;83.50;;;;;;6149860;23;20017;-78
2021/04/18 11:55:19;;;;;;;7.20;3.83;;;13.30;84.00;;;;;;6123210;23;20100;-77
2021/04/18 11:57:45;;;;;;;6.03;3.28;;;13.30;83.90;;;;;;6123904;23;20021;-78
2021/04/18 12:00:13;;;;;;;8.35;2.95;;;13.40;84.80;;;;;;6123578;23;20456;-78
2021/04/18 12:02:39;;;;;;;7.18;3.03;;;13.40;84.60;;;;;;6122145;23;20010;-78
2021/04/18 12:05:06;;;;;;;5.32;2.95;;;13.30;85.00;;;;;;6124351;23;20009;-78
2021/04/18 12:07:32;;;;;;;6.38;2.33;;;13.40;85.50;;;;;;6123509;23;20071;-78
2021/04/18 12:09:58;;;;;;;5.88;2.53;;;13.50;84.70;;;;;;6123839;23;20045;-78
2021/04/18 12:12:24;;;;;;;8.10;2.50;;;13.60;83.20;;;;;;6122289;23;20021;-78
2021/04/18 12:14:53;;;;;;;6.88;2.22;;;13.60;83.60;;;;;;6149906;23;20072;-78
2021/04/18 12:17:19;;;;;;;5.80;2.40;;;13.60;84.90;;;;;;6099736;23;20014;-78
2021/04/18 12:19:46;;;;;;;7.15;2.90;;;13.70;82.00;;;;;;6122557;23;20025;-78
2021/04/18 12:22:12;;;;;;;14.65;3.40;;;13.90;80.00;;;;;;6122844;23;20060;-78
2021/04/18 12:24:38;;;;;;;7.32;2.78;;;13.90;80.80;;;;;;6123317;23;20361;-78
2021/04/18 12:27:04;;;;;;;9.10;2.65;;;14.00;80.30;;;;;;6099388;23;20013;-78
2021/04/18 12:29:31;;;;;;;5.07;2.17;;;14.00;78.50;;;;;;6100324;23;20041;-80
2021/04/18 12:31:57;;;;;;;5.63;2.83;;;14.10;73.60;;;;;;6147626;23;20021;-78
2021/04/18 12:34:23;;;;;;;5.55;2.33;;;14.20;73.80;;;;;;6100984;23;20060;-78
2021/04/18 12:36:49;;;;;;;6.35;2.58;;;14.20;74.20;;;;;;6123493;23;20020;-79
2021/04/18 12:39:15;;;;;;;5.22;2.60;;;14.20;74.40;;;;;;6098630;23;20449;-79
2021/04/18 12:41:41;;;;;;;6.05;2.20;;;14.30;72.10;;;;;;6121503;23;20044;-80
2021/04/18 12:44:07;;;;;;;6.18;2.97;;;14.30;72.90;;;;;;6123674;23;20025;-80
2021/04/18 12:46:33;;;;;;;6.28;2.75;;;14.30;73.70;;;;;;6123781;23;20021;-80
2021/04/18 12:48:58;;;;;;;10.48;2.65;;;14.30;74.70;;;;;;6123229;23;20101;-78
2021/04/18 12:51:27;;;;;;;4.47;2.40;;;14.30;74.50;;;;;;6146745;23;20029;-78